createdAt,value
2018-11-01T00:00:29.668Z,99357.86
2018-11-01T00:03:05.812Z,99346.95
2018-11-01T00:05:41.457Z,99359.70
2018-11-01T00:08:16.873Z,99359.05
2018-11-01T00:11:05.549Z,99357.48
2018-11-01T00:13:40.896Z,99369.69
2018-11-01T00:16:16.497Z,99366.55
2018-11-01T00:18:52.381Z,99369.26
2018-11-01T00:21:27.926Z,99365.80
2018-11-01T00:24:03.393Z,99356.15
2018-11-01T00:26:38.819Z,99354.03
2018-11-01T00:29:14.549Z,99355.72
2018-11-01T00:31:50.029Z,99350.86
2018-11-01T00:34:25.800Z,99358.35
2018-11-01T00:37:01.784Z,99357.58
2018-11-01T00:39:37.445Z,99354.31
2018-11-01T00:42:13.015Z,99346.82
2018-11-01T00:44:48.645Z,99347.77
2018-11-01T00:47:24.557Z,99358.95
2018-11-01T00:50:00.568Z,99355.94
2018-11-01T00:52:36.193Z,99355.94
2018-11-01T00:55:12.971Z,99342.47
2018-11-01T00:57:55.330Z,99340.20
2018-11-01T01:00:42.055Z,99353.66
2018-11-01T01:03:17.627Z,99340.11
2018-11-01T01:05:53.130Z,99343.59
2018-11-01T01:08:43.483Z,99336.97
2018-11-01T01:11:19.116Z,99336.44
2018-11-01T01:13:55.129Z,99341.45
2018-11-01T01:16:30.613Z,99332.75
2018-11-01T01:19:07.143Z,99325.09
2018-11-01T01:21:43.661Z,99334.00
2018-11-01T01:24:19.314Z,99321.16
2018-11-01T01:26:54.864Z,99321.48
2018-11-01T01:29:30.662Z,99318.34
2018-11-01T01:32:06.441Z,99297.55
2018-11-01T01:34:41.977Z,99291.78
2018-11-01T01:37:18.093Z,99295.09
2018-11-01T01:39:55.413Z,99296.02
2018-11-01T01:42:36.042Z,99295.03
2018-11-01T01:47:53.895Z,99291.56
2018-11-01T01:50:33.036Z,99289.03
2018-11-01T01:53:09.192Z,99283.70
2018-11-01T01:55:44.580Z,99287.22
2018-11-01T01:58:19.985Z,99301.19
2018-11-01T02:00:55.636Z,99289.94
2018-11-01T02:03:31.284Z,99290.10
2018-11-01T02:06:07.040Z,99284.72
2018-11-01T02:08:42.615Z,99294.15
2018-11-01T02:11:18.156Z,99287.89
2018-11-01T02:13:53.590Z,99276.05
2018-11-01T02:16:29.192Z,99259.33
2018-11-01T02:19:05.365Z,99250.80
2018-11-01T02:21:40.762Z,99247.28
2018-11-01T02:24:16.463Z,99245.08
2018-11-01T02:26:52.074Z,99242.88
2018-11-01T02:29:28.678Z,99243.70
2018-11-01T02:32:04.208Z,99256.34
2018-11-01T02:34:39.848Z,99244.17
2018-11-01T02:37:15.465Z,99249.88
2018-11-01T02:39:50.962Z,99257.24
2018-11-01T02:42:26.536Z,99251.50
2018-11-01T02:45:03.185Z,99253.87
2018-11-01T02:47:39.157Z,99237.07
2018-11-01T02:50:24.845Z,99254.14
2018-11-01T02:53:00.597Z,99263.48
2018-11-01T02:55:35.989Z,99260.98
2018-11-01T02:58:11.487Z,99255.39
2018-11-01T03:00:47.176Z,99247.94
2018-11-01T03:03:22.659Z,99254.64
2018-11-01T03:05:58.202Z,99251.11
2018-11-01T03:08:34.034Z,99257.14
2018-11-01T03:11:09.544Z,99261.64
2018-11-01T03:13:45.176Z,99261.42
2018-11-01T03:16:20.829Z,99266.17
2018-11-01T03:18:56.512Z,99283.33
2018-11-01T03:21:32.010Z,99279.58
2018-11-01T03:24:07.937Z,99274.20
2018-11-01T03:26:43.531Z,99272.67
2018-11-01T03:29:19.262Z,99267.42
2018-11-01T03:31:54.651Z,99268.48
2018-11-01T03:34:30.217Z,99269.34
2018-11-01T03:37:06.192Z,99268.72
2018-11-01T03:39:41.714Z,99261.13
2018-11-01T03:42:17.309Z,99257.89
2018-11-01T03:44:52.935Z,99254.12
2018-11-01T03:47:28.669Z,99254.14
2018-11-01T03:50:04.276Z,99242.31
2018-11-01T03:52:40.448Z,99237.81
2018-11-01T03:55:33.829Z,99236.67
2018-11-01T03:58:09.394Z,99236.34
2018-11-01T04:00:45.145Z,99238.42
2018-11-01T04:03:20.683Z,99234.00
2018-11-01T04:05:56.806Z,99226.34
2018-11-01T04:08:32.253Z,99205.34
2018-11-01T04:11:07.964Z,99221.66
2018-11-01T04:13:43.548Z,99213.16
2018-11-01T04:16:32.489Z,99212.54
2018-11-01T04:19:07.833Z,99211.57
2018-11-01T04:21:43.339Z,99207.61
2018-11-01T04:24:18.849Z,99198.78
2018-11-01T04:26:54.294Z,99200.75
2018-11-01T04:29:30.701Z,99191.84
2018-11-01T04:32:06.708Z,99187.28
2018-11-01T04:34:42.172Z,99189.36
2018-11-01T04:37:17.701Z,99184.55
2018-11-01T04:39:53.181Z,99189.91
2018-11-01T04:42:28.723Z,99186.25
2018-11-01T04:45:04.399Z,98994.09
2018-11-01T04:47:40.553Z,99198.22
2018-11-01T04:50:27.770Z,99200.82
2018-11-01T04:53:08.368Z,99203.02
2018-11-01T04:55:44.086Z,99198.48
2018-11-01T04:58:19.973Z,99184.47
2018-11-01T05:00:55.452Z,99174.46
2018-11-01T05:03:31.104Z,99168.39
2018-11-01T05:06:07.970Z,99162.80
2018-11-01T05:08:43.588Z,99157.36
2018-11-01T05:11:19.847Z,99161.91
2018-11-01T05:13:55.362Z,99155.89
2018-11-01T05:16:31.178Z,99157.77
2018-11-01T05:19:07.277Z,99157.34
2018-11-01T05:21:42.722Z,99153.11
2018-11-01T05:24:18.278Z,99155.87
2018-11-01T05:26:53.763Z,99155.27
2018-11-01T05:29:29.347Z,99148.73
2018-11-01T05:32:05.702Z,99141.06
2018-11-01T05:34:41.333Z,99127.25
2018-11-01T05:37:16.824Z,99127.62
2018-11-01T05:39:52.381Z,99130.83
2018-11-01T05:42:28.965Z,99123.41
2018-11-01T05:45:05.376Z,99118.88
2018-11-01T05:47:40.837Z,99124.93
2018-11-01T05:50:16.353Z,99123.91
2018-11-01T05:52:56.077Z,99129.31
2018-11-01T05:55:34.279Z,99128.09
2018-11-01T05:58:09.923Z,99112.03
2018-11-01T06:00:45.712Z,99099.77
2018-11-01T06:03:21.169Z,99089.23
2018-11-01T06:05:57.778Z,99107.54
2018-11-01T06:08:35.437Z,99109.08
2018-11-01T06:11:11.011Z,99105.53
2018-11-01T06:13:49.159Z,99119.47
2018-11-01T06:16:24.797Z,99129.53
2018-11-01T06:19:00.364Z,99118.56
2018-11-01T06:21:35.903Z,99125.48
2018-11-01T06:24:11.333Z,99130.05
2018-11-01T06:26:46.832Z,99134.95
2018-11-01T06:29:22.587Z,99086.37
2018-11-01T06:31:58.341Z,99154.48
2018-11-01T06:34:36.842Z,99158.93
2018-11-01T06:37:12.449Z,99160.67
2018-11-01T06:39:48.126Z,99160.80
2018-11-01T06:42:24.374Z,99159.73
2018-11-01T06:44:59.967Z,99167.39
2018-11-01T06:47:36.037Z,99165.34
2018-11-01T06:50:11.551Z,99040.22
2018-11-01T06:52:52.522Z,99145.08
2018-11-01T06:55:34.422Z,99149.09
2018-11-01T06:58:10.358Z,99146.98
2018-11-01T07:00:46.078Z,99131.33
2018-11-01T07:03:21.544Z,99141.84
2018-11-01T07:05:57.340Z,99153.38
2018-11-01T07:08:32.776Z,99170.75
2018-11-01T07:11:08.191Z,99178.14
2018-11-01T07:13:44.909Z,99177.73
2018-11-01T07:16:20.633Z,99164.88
2018-11-01T07:18:56.645Z,99174.77
2018-11-01T07:21:32.325Z,99175.92
2018-11-01T07:24:08.024Z,99187.49
2018-11-01T07:26:43.628Z,99188.06
2018-11-01T07:29:19.095Z,99198.66
2018-11-01T07:31:54.847Z,99205.25
2018-11-01T07:34:30.476Z,99220.97
2018-11-01T07:37:07.081Z,99228.09
2018-11-01T07:39:42.798Z,99231.98
2018-11-01T07:42:18.993Z,99221.61
2018-11-01T07:44:54.629Z,99210.60
2018-11-01T07:47:30.511Z,99212.47
2018-11-01T07:50:07.325Z,99192.21
2018-11-01T07:52:44.733Z,99194.42
2018-11-01T07:55:34.444Z,99202.09
2018-11-01T07:58:16.762Z,99199.40
2018-11-01T08:00:52.362Z,99191.08
2018-11-01T08:03:28.043Z,99205.48
2018-11-01T08:06:04.508Z,99202.25
2018-11-01T08:08:40.100Z,99200.30
2018-11-01T08:11:15.876Z,99207.02
2018-11-01T08:13:51.484Z,99200.83
2018-11-01T08:16:27.145Z,99201.89
2018-11-01T08:19:03.106Z,99198.84
2018-11-01T08:21:42.119Z,99188.78
2018-11-01T08:24:17.668Z,99177.45
2018-11-01T08:26:53.280Z,99186.30
2018-11-01T08:29:28.800Z,99194.11
2018-11-01T08:32:04.413Z,99196.38
2018-11-01T08:34:39.940Z,99199.05
2018-11-01T08:37:15.592Z,99199.98
2018-11-01T08:39:51.801Z,99202.34
2018-11-01T08:42:27.394Z,99195.27
2018-11-01T08:45:03.230Z,99188.36
2018-11-01T08:47:38.734Z,99196.55
2018-11-01T08:50:15.142Z,99198.49
2018-11-01T08:52:50.690Z,99200.30
2018-11-01T08:55:34.659Z,99197.30
2018-11-01T08:58:10.114Z,99191.94
2018-11-01T09:00:45.621Z,99019.73
2018-11-01T09:03:21.537Z,99205.40
2018-11-01T09:05:56.939Z,99211.19
2018-11-01T09:08:32.352Z,99206.20
2018-11-01T09:11:07.865Z,99215.44
2018-11-01T09:13:43.502Z,99220.94
2018-11-01T09:16:19.004Z,99225.75
2018-11-01T09:18:55.026Z,99230.15
2018-11-01T09:21:30.618Z,99223.80
2018-11-01T09:24:07.484Z,99233.34
2018-11-01T09:26:43.171Z,99225.25
2018-11-01T09:29:18.855Z,99213.92
2018-11-01T09:31:54.450Z,99205.02
2018-11-01T09:34:29.921Z,99198.16
2018-11-01T09:37:06.001Z,99191.75
2018-11-01T09:39:41.629Z,99186.88
2018-11-01T09:42:17.284Z,99177.40
2018-11-01T09:44:52.941Z,99176.95
2018-11-01T09:47:29.103Z,99180.88
2018-11-01T09:50:05.403Z,99162.59
2018-11-01T09:52:40.987Z,99162.83
2018-11-01T09:55:34.743Z,99158.84
2018-11-01T09:58:10.755Z,99152.76
2018-11-01T10:00:50.347Z,99142.86
2018-11-01T10:03:25.841Z,99149.66
2018-11-01T10:06:01.438Z,99150.34
2018-11-01T10:08:37.241Z,99146.73
2018-11-01T10:11:12.776Z,99150.33
2018-11-01T10:13:48.126Z,99157.05
2018-11-01T10:16:23.683Z,99154.48
2018-11-01T10:19:00.711Z,99147.10
2018-11-01T10:21:39.352Z,99151.70
2018-11-01T10:24:16.166Z,99162.02
2018-11-01T10:26:51.768Z,99169.04
2018-11-01T10:29:27.531Z,99152.75
2018-11-01T10:32:04.945Z,99148.41
2018-11-01T10:34:40.762Z,99090.81
2018-11-01T10:37:16.321Z,99160.54
2018-11-01T10:39:52.741Z,99162.01
2018-11-01T10:42:28.794Z,99156.19
2018-11-01T10:45:04.415Z,99149.51
2018-11-01T10:47:40.248Z,99160.91
2018-11-01T10:50:17.682Z,99143.70
2018-11-01T10:52:53.436Z,99137.03
2018-11-01T10:55:36.158Z,99138.97
2018-11-01T10:58:12.510Z,99145.98
2018-11-01T11:00:53.319Z,99150.97
2018-11-01T11:03:29.008Z,99145.02
2018-11-01T11:06:04.961Z,99150.59
2018-11-01T11:08:40.379Z,99124.66
2018-11-01T11:11:16.118Z,99130.09
2018-11-01T11:13:52.017Z,99120.64
2018-11-01T11:16:27.517Z,99130.94
2018-11-01T11:19:03.146Z,99130.95
2018-11-01T11:21:39.583Z,99131.29
2018-11-01T11:24:15.824Z,99143.44
2018-11-01T11:26:51.373Z,99155.68
2018-11-01T11:29:27.109Z,99152.63
2018-11-01T11:32:02.817Z,99168.38
2018-11-01T11:34:38.458Z,99168.52
2018-11-01T11:37:13.974Z,99161.10
2018-11-01T11:39:49.650Z,99162.17
2018-11-01T11:42:25.434Z,99178.66
2018-11-01T11:45:01.104Z,99171.55
2018-11-01T11:47:36.679Z,99166.00
2018-11-01T11:50:13.563Z,99169.61
2018-11-01T11:52:57.741Z,99170.84
2018-11-01T11:55:41.608Z,99163.45
2018-11-01T11:58:17.293Z,99165.64
2018-11-01T12:00:54.017Z,99166.11
2018-11-01T12:03:29.871Z,99175.20
2018-11-01T12:06:06.031Z,99178.17
2018-11-01T12:08:42.000Z,99179.55
2018-11-01T12:11:17.574Z,99180.68
2018-11-01T12:13:53.484Z,99177.78
2018-11-01T12:16:29.087Z,99176.19
2018-11-01T12:19:04.944Z,99180.94
2018-11-01T12:21:40.851Z,99168.89
2018-11-01T12:24:16.547Z,99166.16
2018-11-01T12:26:52.308Z,99167.20
2018-11-01T12:29:27.782Z,99175.94
2018-11-01T12:32:03.496Z,99166.36
2018-11-01T12:34:38.873Z,99199.75
2018-11-01T12:37:14.710Z,99205.16
2018-11-01T12:39:50.164Z,99200.17
2018-11-01T12:42:31.822Z,99200.55
2018-11-01T12:45:08.994Z,99194.83
2018-11-01T12:47:50.713Z,99177.44
2018-11-01T12:50:28.298Z,99063.66
2018-11-01T12:53:04.217Z,99202.38
2018-11-01T12:55:39.765Z,99208.43
2018-11-01T12:58:15.172Z,99206.24
2018-11-01T13:00:50.772Z,99203.12
2018-11-01T13:03:26.382Z,99198.45
2018-11-01T13:06:02.037Z,99201.91
2018-11-01T13:08:40.510Z,99194.89
2018-11-01T13:11:16.281Z,99203.98
2018-11-01T13:13:53.068Z,99189.39
2018-11-01T13:16:28.695Z,99181.28
2018-11-01T13:19:05.181Z,99201.55
2018-11-01T13:21:41.541Z,99203.11
2018-11-01T13:24:17.365Z,99211.20
2018-11-01T13:26:53.256Z,99224.17
2018-11-01T13:29:28.738Z,99223.98
2018-11-01T13:32:04.338Z,99229.99
2018-11-01T13:34:40.312Z,99236.23
2018-11-01T13:37:17.123Z,99232.23
2018-11-01T13:39:52.720Z,99233.93
2018-11-01T13:42:28.206Z,99233.70
2018-11-01T13:45:04.874Z,99238.20
2018-11-01T13:47:40.507Z,99244.88
2018-11-01T13:50:33.805Z,99257.23
2018-11-01T13:53:09.497Z,99257.36
2018-11-01T13:55:50.653Z,99248.62
2018-11-01T13:58:26.255Z,99232.13
2018-11-01T14:01:02.099Z,99231.40
2018-11-01T14:03:37.594Z,99248.21
2018-11-01T14:06:25.592Z,99255.10
2018-11-01T14:09:01.246Z,99241.28
2018-11-01T14:11:37.055Z,99248.21
2018-11-01T14:14:12.790Z,99234.95
2018-11-01T14:16:48.274Z,99242.39
2018-11-01T14:19:23.884Z,99238.91
2018-11-01T14:21:59.516Z,99242.78
2018-11-01T14:24:35.361Z,99232.02
2018-11-01T14:27:11.314Z,99233.03
2018-11-01T14:29:47.126Z,99221.45
2018-11-01T14:32:22.625Z,99226.95
2018-11-01T14:34:58.376Z,99218.02
2018-11-01T14:37:34.308Z,99226.36
2018-11-01T14:43:03.152Z,99218.54
2018-11-01T14:45:42.966Z,99215.54
2018-11-01T14:48:18.688Z,99205.09
2018-11-01T14:50:54.273Z,99208.82
2018-11-01T14:53:31.130Z,99194.16
2018-11-01T14:56:08.502Z,99199.24
2018-11-01T14:58:44.153Z,99195.19
2018-11-01T15:01:19.144Z,99197.59
2018-11-01T15:03:55.080Z,99192.84
2018-11-01T15:06:31.924Z,99184.48
2018-11-01T15:09:10.623Z,99180.42
2018-11-01T15:11:46.151Z,99174.98
2018-11-01T15:14:21.969Z,99147.77
2018-11-01T15:16:57.667Z,99196.36
2018-11-01T15:19:33.147Z,99184.59
2018-11-01T15:22:08.884Z,99180.59
2018-11-01T15:24:44.717Z,99175.97
2018-11-01T15:27:20.432Z,99185.84
2018-11-01T15:29:55.931Z,99186.63
2018-11-01T15:32:31.669Z,99155.55
2018-11-01T15:35:08.731Z,99188.89
2018-11-01T15:37:44.885Z,99192.67
2018-11-01T15:40:35.200Z,99183.26
2018-11-01T15:43:10.837Z,99178.63
2018-11-01T15:45:46.656Z,99183.44
2018-11-01T15:48:22.146Z,99121.86
2018-11-01T15:50:58.109Z,99172.70
2018-11-01T15:53:34.173Z,99169.89
2018-11-01T15:56:10.128Z,99163.64
2018-11-01T15:58:49.156Z,99167.53
2018-11-01T16:01:24.953Z,99167.02
2018-11-01T16:04:01.032Z,99067.50
2018-11-01T16:06:36.887Z,99166.87
2018-11-01T16:09:13.583Z,99168.86
2018-11-01T16:11:48.997Z,99180.84
2018-11-01T16:14:24.517Z,99182.05
2018-11-01T16:17:00.018Z,99189.42
2018-11-01T16:19:35.476Z,99174.58
2018-11-01T16:22:12.183Z,99179.25
2018-11-01T16:24:47.754Z,99178.19
2018-11-01T16:27:23.324Z,99176.38
2018-11-01T16:30:03.616Z,99175.10
2018-11-01T16:32:39.711Z,99156.75
2018-11-01T16:38:13.701Z,99165.34
2018-11-01T16:43:39.197Z,99158.16
2018-11-01T16:46:14.982Z,99162.83
2018-11-01T16:48:51.092Z,99170.48
2018-11-01T16:51:28.317Z,99168.20
2018-11-01T16:54:04.060Z,99173.61
2018-11-01T16:56:39.457Z,99181.05
2018-11-01T16:59:15.265Z,99175.30
2018-11-01T17:01:51.805Z,98745.55
2018-11-01T17:04:27.590Z,99166.53
2018-11-01T17:07:03.087Z,99166.80
2018-11-01T17:09:38.736Z,99163.13
2018-11-01T17:12:14.504Z,99159.61
2018-11-01T17:14:50.240Z,99147.52
2018-11-01T17:17:25.904Z,99148.06
2018-11-01T17:20:01.460Z,99143.69
2018-11-01T17:22:37.278Z,99138.58
2018-11-01T17:25:12.967Z,99140.80
2018-11-01T17:27:54.882Z,99134.13
2018-11-01T17:30:35.204Z,99138.14
2018-11-01T17:33:11.008Z,99139.11
2018-11-01T17:35:46.505Z,99124.30
2018-11-01T17:38:22.274Z,99109.79
2018-11-01T17:40:57.955Z,99124.06
2018-11-01T17:43:33.603Z,99107.33
2018-11-01T17:46:09.584Z,99104.51
2018-11-01T17:48:45.829Z,99111.42
2018-11-01T17:51:22.785Z,99100.09
2018-11-01T17:53:58.599Z,99093.61
2018-11-01T17:56:34.620Z,99096.70
2018-11-01T17:59:10.721Z,99084.02
2018-11-01T18:01:46.998Z,99040.42
2018-11-01T18:04:22.884Z,99059.94
2018-11-01T18:06:58.860Z,99042.31
2018-11-01T18:09:34.616Z,99043.20
2018-11-01T18:12:10.942Z,99028.69
2018-11-01T18:14:47.412Z,99038.36
2018-11-01T18:17:23.178Z,99055.36
2018-11-01T18:19:58.780Z,99042.08
2018-11-01T18:22:34.359Z,99033.74
2018-11-01T18:25:11.966Z,99045.70
2018-11-01T18:27:53.180Z,99035.70
2018-11-01T18:30:34.681Z,99040.29
2018-11-01T18:33:10.267Z,99052.94
2018-11-01T18:35:46.006Z,99049.52
2018-11-01T18:38:21.675Z,99055.36
2018-11-01T18:40:57.913Z,99064.09
2018-11-01T18:43:33.464Z,99060.55
2018-11-01T18:46:09.473Z,99048.63
2018-11-01T18:48:45.053Z,99048.06
2018-11-01T18:51:21.153Z,99053.90
2018-11-01T18:53:56.637Z,99064.30
2018-11-01T18:56:34.390Z,99061.08
2018-11-01T18:59:10.721Z,99062.27
2018-11-01T19:01:46.358Z,99055.00
2018-11-01T19:04:22.082Z,99048.06
2018-11-01T19:06:58.825Z,99053.27
2018-11-01T19:09:34.529Z,99047.27
2018-11-01T19:12:10.222Z,99053.37
2018-11-01T19:14:45.987Z,99047.49
2018-11-01T19:17:21.749Z,98897.63
2018-11-01T19:19:57.810Z,99076.52
2018-11-01T19:22:33.709Z,99074.41
2018-11-01T19:25:09.955Z,99089.80
2018-11-01T19:27:50.106Z,99111.67
2018-11-01T19:30:28.509Z,99150.62
2018-11-01T19:33:04.326Z,99147.96
2018-11-01T19:35:57.405Z,99139.77
2018-11-01T19:38:32.896Z,99135.19
2018-11-01T19:41:08.679Z,99144.23
2018-11-01T19:43:44.225Z,99151.44
2018-11-01T19:46:19.695Z,99168.79
2018-11-01T19:48:55.272Z,99174.09
2018-11-01T19:51:30.931Z,99182.48
2018-11-01T19:54:06.704Z,99184.23
2018-11-01T19:56:42.225Z,99170.64
2018-11-01T19:59:18.672Z,99153.05
2018-11-01T20:01:54.257Z,99151.16
2018-11-01T20:04:29.910Z,99142.98
2018-11-01T20:07:05.722Z,99155.02
2018-11-01T20:09:41.232Z,99141.91
2018-11-01T20:12:17.056Z,99157.81
2018-11-01T20:14:52.520Z,99144.69
2018-11-01T20:17:28.323Z,99135.95
2018-11-01T20:20:04.843Z,99131.45
2018-11-01T20:22:42.040Z,99126.47
2018-11-01T20:25:31.951Z,99124.45
2018-11-01T20:28:07.915Z,99133.66
2018-11-01T20:30:43.561Z,99133.25
2018-11-01T20:33:19.166Z,99138.02
2018-11-01T20:35:55.192Z,99128.30
2018-11-01T20:38:31.597Z,99126.95
2018-11-01T20:41:07.283Z,99129.77
2018-11-01T20:43:42.954Z,99132.16
2018-11-01T20:46:19.710Z,99146.94
2018-11-01T20:48:55.656Z,99137.47
2018-11-01T20:51:31.512Z,99160.15
2018-11-01T20:54:07.324Z,99159.51
2018-11-01T20:56:42.960Z,99158.23
2018-11-01T20:59:18.881Z,99146.42
2018-11-01T21:01:54.455Z,99132.59
2018-11-01T21:04:30.068Z,99132.55
2018-11-01T21:07:06.384Z,99137.50
2018-11-01T21:09:42.634Z,99131.87
2018-11-01T21:12:18.388Z,99125.02
2018-11-01T21:14:53.800Z,99120.07
2018-11-01T21:17:29.667Z,99099.25
2018-11-01T21:20:06.594Z,99074.14
2018-11-01T21:22:42.406Z,99073.64
2018-11-01T21:25:33.106Z,99075.48
2018-11-01T21:28:08.571Z,99050.08
2018-11-01T21:30:44.087Z,98915.59
2018-11-01T21:33:24.813Z,99050.81
2018-11-01T21:36:00.467Z,99058.14
2018-11-01T21:38:35.969Z,99060.15
2018-11-01T21:41:11.729Z,99076.72
2018-11-01T21:43:47.383Z,99086.45
2018-11-01T21:46:23.054Z,99082.25
2018-11-01T21:48:58.996Z,99087.33
2018-11-01T21:51:34.523Z,99090.44
2018-11-01T21:54:10.258Z,99098.98
2018-11-01T21:56:45.818Z,99104.89
2018-11-01T21:59:21.313Z,99104.16
2018-11-01T22:01:57.117Z,99120.30
2018-11-01T22:04:33.102Z,99129.33
2018-11-01T22:07:09.332Z,99131.80
2018-11-01T22:09:44.917Z,99121.97
2018-11-01T22:12:20.609Z,99113.23
2018-11-01T22:14:56.322Z,99105.70
2018-11-01T22:17:31.937Z,99118.11
2018-11-01T22:20:09.180Z,99124.13
2018-11-01T22:22:50.683Z,99129.92
2018-11-01T22:25:30.415Z,99133.13
2018-11-01T22:28:06.722Z,99133.13
2018-11-01T22:30:42.988Z,99131.77
2018-11-01T22:33:18.468Z,99129.48
2018-11-01T22:35:54.177Z,99118.02
2018-11-01T22:38:31.115Z,99112.30
2018-11-01T22:41:07.083Z,99096.20
2018-11-01T22:43:42.689Z,99099.70
2018-11-01T22:46:18.656Z,99130.47
2018-11-01T22:48:54.187Z,99024.75
2018-11-01T22:51:30.033Z,99152.25
2018-11-01T22:54:05.998Z,99161.69
2018-11-01T22:56:41.734Z,99158.32
2018-11-01T22:59:17.500Z,99166.59
2018-11-01T23:01:53.207Z,99160.53
2018-11-01T23:04:29.241Z,99170.29
2018-11-01T23:07:05.256Z,99161.63
2018-11-01T23:09:41.448Z,99160.91
2018-11-01T23:12:17.357Z,99162.91
2018-11-01T23:14:52.994Z,99168.80
2018-11-01T23:17:29.081Z,99167.66
2018-11-01T23:20:05.044Z,99158.79
2018-11-01T23:22:41.110Z,99162.97
2018-11-01T23:25:33.412Z,99157.23
2018-11-01T23:28:09.232Z,99149.78
2018-11-01T23:30:44.721Z,99160.09
2018-11-01T23:33:20.560Z,99165.41
2018-11-01T23:36:00.101Z,99157.84
2018-11-01T23:38:40.921Z,99157.35
2018-11-01T23:41:21.882Z,99156.09
2018-11-01T23:44:03.471Z,99154.37
2018-11-01T23:46:44.461Z,99123.46
2018-11-01T23:49:23.422Z,99147.69
2018-11-01T23:51:58.899Z,99157.58
2018-11-01T23:54:34.706Z,99160.83
2018-11-01T23:57:10.417Z,99157.35
2018-11-01T23:59:46.949Z,99160.70
